createdAt,value
2022-10-05T00:00:46.888Z,79.52
2022-10-05T00:10:52.782Z,80.80
2022-10-05T00:20:59.212Z,81.43
2022-10-05T00:31:13.511Z,82.79
2022-10-05T00:41:22.894Z,84.23
2022-10-05T00:51:29.568Z,84.75
2022-10-05T01:01:37.611Z,84.70
2022-10-05T01:11:48.216Z,85.68
2022-10-05T01:21:57.856Z,85.45
2022-10-05T01:32:14.130Z,84.87
2022-10-05T01:42:30.413Z,85.46
2022-10-05T01:52:48.591Z,84.11
2022-10-05T02:03:00.114Z,85.50
2022-10-05T02:13:15.901Z,86.25
2022-10-05T02:23:23.577Z,86.91
2022-10-05T02:33:33.886Z,86.60
2022-10-05T02:43:51.784Z,86.08
2022-10-05T02:54:10.935Z,87.08
2022-10-05T03:14:49.561Z,87.40
2022-10-05T03:25:15.680Z,87.68
2022-10-05T03:35:28.457Z,88.11
2022-10-05T03:45:38.199Z,87.37
2022-10-05T03:55:49.874Z,86.81
2022-10-05T04:05:57.992Z,87.21
2022-10-05T04:16:26.104Z,86.98
2022-10-05T04:26:44.731Z,87.11
2022-10-05T04:37:02.002Z,86.78
2022-10-05T04:47:22.943Z,87.20
2022-10-05T04:57:38.945Z,87.36
2022-10-05T05:07:50.371Z,87.52
2022-10-05T05:18:21.497Z,87.29
2022-10-05T05:28:32.940Z,87.78
2022-10-05T05:38:42.784Z,87.25
2022-10-05T05:48:48.532Z,86.86
2022-10-05T05:58:58.071Z,88.00
2022-10-05T06:09:12.172Z,88.11
2022-10-05T06:19:20.222Z,87.88
2022-10-05T06:29:29.583Z,88.17
2022-10-05T06:40:07.972Z,88.77
2022-10-05T06:50:20.497Z,87.96
2022-10-05T07:00:30.191Z,87.44
2022-10-05T07:10:41.293Z,85.61
2022-10-05T07:20:58.071Z,83.97
2022-10-05T07:31:13.961Z,83.64
2022-10-05T07:41:30.546Z,83.02
2022-10-05T07:51:39.900Z,81.88
2022-10-05T08:01:53.243Z,80.23
2022-10-05T08:12:08.698Z,76.42
2022-10-05T08:22:31.929Z,76.49
2022-10-05T08:32:49.160Z,75.33
2022-10-05T08:43:07.242Z,76.16
2022-10-05T08:53:29.876Z,77.03
2022-10-05T09:04:14.869Z,78.49
2022-10-05T09:14:41.744Z,78.69
2022-10-05T09:25:25.776Z,76.55
2022-10-05T09:36:22.385Z,74.83
2022-10-05T09:46:56.694Z,72.82
2022-10-05T09:57:19.152Z,71.96
2022-10-05T10:08:08.052Z,71.87
2022-10-05T10:18:47.441Z,74.15
2022-10-05T10:39:51.469Z,77.97
2022-10-05T10:50:24.798Z,78.03
2022-10-05T11:00:56.817Z,77.51
2022-10-05T11:11:22.624Z,77.47
2022-10-05T11:21:55.616Z,77.07
2022-10-05T11:32:35.856Z,76.29
2022-10-05T11:43:17.451Z,77.00
2022-10-05T11:53:27.714Z,77.43
2022-10-05T12:03:49.361Z,77.69
2022-10-05T12:14:05.608Z,76.03
2022-10-05T12:24:26.888Z,74.47
2022-10-05T12:34:52.427Z,73.39
2022-10-05T12:45:17.594Z,73.71
2022-10-05T12:55:28.914Z,73.67
2022-10-05T13:05:45.722Z,73.16
2022-10-05T13:16:07.373Z,72.46
2022-10-05T13:26:21.234Z,72.22
2022-10-05T13:36:38.390Z,71.42
2022-10-05T13:46:58.027Z,72.35
2022-10-05T13:57:24.587Z,73.12
2022-10-05T14:07:38.512Z,72.97
2022-10-05T14:17:44.521Z,73.24
2022-10-05T14:27:56.649Z,73.03
2022-10-05T14:38:10.433Z,72.88
2022-10-05T14:48:14.662Z,72.81
2022-10-05T14:58:38.640Z,74.47
2022-10-05T15:08:56.698Z,76.63
2022-10-05T15:19:15.487Z,76.97
2022-10-05T15:29:43.212Z,78.25
2022-10-05T15:39:53.893Z,79.51
2022-10-05T15:50:07.518Z,79.67
2022-10-05T16:00:15.847Z,80.67
2022-10-05T16:10:22.882Z,81.53
2022-10-05T16:20:41.871Z,81.43
2022-10-05T16:31:03.351Z,81.98
2022-10-05T16:41:19.097Z,82.10
2022-10-05T16:51:35.072Z,82.84
2022-10-05T17:01:54.369Z,82.91
2022-10-05T17:12:29.855Z,82.45
2022-10-05T17:22:51.868Z,82.37
2022-10-05T17:32:59.075Z,82.84
2022-10-05T17:43:26.611Z,82.71
2022-10-05T17:53:56.624Z,83.17
2022-10-05T18:04:38.992Z,83.45
2022-10-05T18:14:57.076Z,83.31
2022-10-05T18:25:07.880Z,83.53
2022-10-05T18:35:31.482Z,83.90
2022-10-05T18:45:54.269Z,84.14
2022-10-05T19:07:16.341Z,84.75
2022-10-05T19:17:27.531Z,84.96
2022-10-05T19:27:44.742Z,85.08
2022-10-05T19:38:01.980Z,85.56
2022-10-05T19:48:22.719Z,86.00
2022-10-05T19:58:31.063Z,85.86
2022-10-05T20:08:46.123Z,85.96
2022-10-05T20:19:08.365Z,86.44
2022-10-05T20:29:16.932Z,86.42
2022-10-05T20:39:37.068Z,85.84
2022-10-05T20:49:42.994Z,85.59
2022-10-05T20:59:46.036Z,86.38
2022-10-05T21:09:51.210Z,86.37
2022-10-05T21:19:54.437Z,85.96
2022-10-05T21:29:59.066Z,86.43
2022-10-05T21:40:02.007Z,86.49
2022-10-05T21:50:08.861Z,86.89
2022-10-05T22:00:14.501Z,87.18
2022-10-05T22:10:19.446Z,86.99
2022-10-05T22:20:24.190Z,87.21
2022-10-05T22:30:29.907Z,86.66
2022-10-05T22:40:34.203Z,87.30
2022-10-05T22:50:40.116Z,86.35
2022-10-05T23:00:59.062Z,87.66
2022-10-05T23:11:05.361Z,87.21
2022-10-05T23:21:10.123Z,87.02
2022-10-05T23:31:17.119Z,87.17
2022-10-05T23:41:20.819Z,87.55
2022-10-05T23:51:25.332Z,86.92
